Time;durP1;ratioP1;P1;durP2;ratioP2;P2;SDS_P1;SDS_P2;PMS_P1;PMS_P2;Temp;Humidity;BMP_temperature;BMP_pressure;BME280_temperature;BME280_humidity;BME280_pressure;Samples;Min_cycle;Max_cycle;Signal;HPM_P1;HPM_P2
2023/06/28 00:01:00;;;;;;;19.17;5.60;;;;;;;23.40;50.42;100736.97;4992495;28;20402;-75
2023/06/28 00:03:26;;;;;;;20.38;5.60;;;;;;;23.20;51.05;100732.16;4992310;28;20382;-75
2023/06/28 00:05:52;;;;;;;22.30;6.05;;;;;;;23.10;51.25;100737.44;4992591;28;20382;-75
2023/06/28 00:08:18;;;;;;;17.85;5.25;;;;;;;23.09;51.62;100744.75;4992241;28;20830;-75
2023/06/28 00:10:44;;;;;;;18.83;5.93;;;;;;;22.96;51.92;100745.13;4991866;28;20378;-75
2023/06/28 00:13:09;;;;;;;19.10;5.50;;;;;;;22.77;52.47;100741.09;4991304;28;20450;-74
2023/06/28 00:15:35;;;;;;;20.23;5.30;;;;;;;22.75;52.55;100752.16;4992267;28;20417;-75
2023/06/28 00:18:03;;;;;;;23.67;5.43;;;;;;;22.63;53.07;100756.84;4992339;28;20718;-75
2023/06/28 00:20:29;;;;;;;21.08;5.80;;;;;;;22.70;52.73;100771.78;4975109;28;20390;-75
2023/06/28 00:22:55;;;;;;;18.95;5.63;;;;;;;22.74;52.93;100769.41;4992225;28;20373;-75
2023/06/28 00:25:21;;;;;;;18.13;5.33;;;;;;;22.48;53.38;100758.25;4992224;28;20378;-74
2023/06/28 00:27:46;;;;;;;21.77;5.97;;;;;;;22.57;53.29;100766.75;4992136;28;20409;-74
2023/06/28 00:30:13;;;;;;;17.92;5.43;;;;;;;22.50;53.61;100769.63;4992255;28;20795;-74
2023/06/28 00:32:38;;;;;;;21.27;5.15;;;;;;;22.48;53.83;100766.38;4991958;28;20484;-74
2023/06/28 00:35:05;;;;;;;22.08;5.78;;;;;;;22.43;54.00;100762.78;4991981;28;20465;-74
2023/06/28 00:37:31;;;;;;;18.98;5.18;;;;;;;22.46;53.92;100746.09;4992158;28;20382;-74
2023/06/28 00:39:57;;;;;;;19.73;5.40;;;;;;;22.47;54.28;100761.22;4991492;28;20858;-75
2023/06/28 00:42:23;;;;;;;21.65;5.50;;;;;;;22.39;54.53;100767.84;4991769;28;20472;-75
2023/06/28 00:44:48;;;;;;;23.97;6.33;;;;;;;22.50;54.00;100768.81;4991728;28;20868;-75
2023/06/28 00:47:14;;;;;;;23.17;5.55;;;;;;;22.49;54.08;100761.78;4991791;28;20700;-75
2023/06/28 00:49:41;;;;;;;22.33;5.63;;;;;;;22.47;54.35;100769.31;4991938;28;20414;-74
2023/06/28 00:52:08;;;;;;;21.17;5.60;;;;;;;22.47;54.23;100780.13;4991576;28;20389;-75
2023/06/28 00:54:33;;;;;;;20.88;5.38;;;;;;;22.41;54.34;100768.41;4991500;28;20400;-75
2023/06/28 00:57:00;;;;;;;25.43;5.97;;;;;;;22.45;54.52;100780.34;4991588;28;20378;-74
2023/06/28 00:59:26;;;;;;;19.73;5.45;;;;;;;22.35;55.03;100788.31;4991655;28;20388;-74
2023/06/28 01:01:54;;;;;;;17.98;5.22;;;;;;;22.44;54.53;100794.94;4991562;28;20471;-74
2023/06/28 01:04:20;;;;;;;22.45;5.80;;;;;;;22.37;54.72;100788.09;4991561;28;20390;-74
2023/06/28 01:06:51;;;;;;;23.52;5.97;;;;;;;22.30;54.95;100783.66;4991441;28;20389;-74
2023/06/28 01:09:19;;;;;;;22.70;5.35;;;;;;;22.50;54.37;100807.44;4991402;28;20408;-74
2023/06/28 01:11:46;;;;;;;21.52;5.68;;;;;;;22.50;54.11;100796.66;4991427;28;20429;-74
2023/06/28 01:14:12;;;;;;;21.17;5.55;;;;;;;22.51;54.32;100803.69;4991562;28;20402;-74
2023/06/28 01:16:39;;;;;;;22.10;5.82;;;;;;;22.29;54.60;100789.28;4985111;28;20576;-74
2023/06/28 01:19:06;;;;;;;24.20;6.00;;;;;;;22.27;53.88;100802.22;4969940;28;20491;-74
2023/06/28 01:21:37;;;;;;;21.53;5.77;;;;;;;22.29;53.60;100805.50;4970837;28;20401;-74
2023/06/28 01:24:03;;;;;;;23.02;5.97;;;;;;;22.15;53.18;100799.59;4966324;28;20387;-74
2023/06/28 01:26:29;;;;;;;21.00;5.27;;;;;;;22.20;53.04;100802.38;4973679;28;20425;-74
2023/06/28 01:28:56;;;;;;;19.95;5.25;;;;;;;22.29;52.59;100808.19;4973777;28;20384;-74
2023/06/28 01:31:22;;;;;;;20.80;5.22;;;;;;;22.20;52.18;100810.47;4973667;28;20478;-74
2023/06/28 01:33:48;;;;;;;20.52;5.10;;;;;;;22.21;51.93;100806.69;4973506;28;20510;-74
2023/06/28 01:36:14;;;;;;;19.80;5.13;;;;;;;22.27;51.05;100813.03;4973368;28;20868;-74
2023/06/28 01:38:41;;;;;;;20.23;4.80;;;;;;;22.22;50.46;100804.81;4975954;28;20375;-74
2023/06/28 01:41:08;;;;;;;22.33;5.07;;;;;;;22.41;50.13;100800.03;4975111;28;20392;-74
2023/06/28 01:43:34;;;;;;;20.42;5.00;;;;;;;22.36;49.45;100797.25;4975761;28;20386;-74
2023/06/28 01:46:00;;;;;;;19.38;4.30;;;;;;;22.45;48.77;100806.56;4975674;28;20422;-74
2023/06/28 01:48:26;;;;;;;17.47;4.57;;;;;;;22.38;48.20;100806.72;4958616;28;20411;-74
2023/06/28 01:50:52;;;;;;;21.45;4.85;;;;;;;22.28;47.61;100795.78;4975271;28;20406;-74
2023/06/28 01:53:18;;;;;;;20.40;4.15;;;;;;;22.45;47.02;100799.25;4975445;28;20450;-75
2023/06/28 01:55:44;;;;;;;19.73;4.30;;;;;;;22.40;46.62;100790.28;4975394;28;20418;-74
2023/06/28 01:58:10;;;;;;;21.23;4.22;;;;;;;22.38;45.94;100805.91;4975307;28;20446;-74
2023/06/28 02:00:35;;;;;;;16.20;3.70;;;;;;;22.44;45.59;100813.03;4975686;28;20749;-74
2023/06/28 02:03:01;;;;;;;15.27;3.60;;;;;;;22.56;45.38;100811.03;4975092;28;20407;-74
2023/06/28 02:05:27;;;;;;;21.08;4.32;;;;;;;22.49;44.64;100821.19;4974927;28;20439;-74
2023/06/28 02:07:53;;;;;;;18.10;3.35;;;;;;;22.33;44.17;100815.56;4975201;28;20859;-74
2023/06/28 02:10:23;;;;;;;19.10;3.90;;;;;;;22.33;44.16;100820.16;4975043;28;20542;-74
2023/06/28 02:12:49;;;;;;;13.17;3.30;;;;;;;22.39;44.08;100818.38;4975116;28;20399;-74
2023/06/28 02:15:15;;;;;;;18.90;3.53;;;;;;;22.41;43.35;100819.75;4975118;28;20383;-74
2023/06/28 02:17:40;;;;;;;17.67;3.72;;;;;;;22.30;43.62;100809.84;4975433;28;20387;-74
2023/06/28 02:20:08;;;;;;;16.43;3.47;;;;;;;22.30;43.05;100815.25;4974657;28;20380;-74
2023/06/28 02:22:34;;;;;;;19.77;3.92;;;;;;;22.26;42.91;100816.78;4974874;28;20375;-73
2023/06/28 02:25:00;;;;;;;20.83;3.73;;;;;;;22.21;42.65;100825.59;4974917;28;20441;-74
2023/06/28 02:27:25;;;;;;;17.67;3.50;;;;;;;22.21;42.87;100825.59;4974957;28;20384;-74
2023/06/28 02:29:51;;;;;;;11.40;2.80;;;;;;;22.11;42.75;100822.72;4974876;28;20391;-74
2023/06/28 02:32:16;;;;;;;17.70;3.55;;;;;;;22.18;42.62;100823.38;4974768;28;20403;-74
2023/06/28 02:34:42;;;;;;;22.73;3.57;;;;;;;22.07;42.62;100832.38;4974441;28;20478;-74
2023/06/28 02:37:08;;;;;;;21.10;4.10;;;;;;;22.15;42.58;100840.91;4973948;28;20376;-74
2023/06/28 02:39:33;;;;;;;20.50;3.53;;;;;;;22.24;42.38;100830.53;4974122;28;20861;-74
2023/06/28 02:41:59;;;;;;;16.90;3.47;;;;;;;22.27;42.22;100837.34;4974162;28;20376;-73
2023/06/28 02:44:24;;;;;;;21.52;3.58;;;;;;;22.33;42.26;100833.66;4974727;28;20422;-73
2023/06/28 02:46:49;;;;;;;17.90;3.53;;;;;;;22.24;42.15;100827.81;4974586;28;20698;-74
2023/06/28 02:49:15;;;;;;;16.90;3.40;;;;;;;22.21;42.29;100831.00;4974068;28;20397;-74
2023/06/28 02:51:40;;;;;;;20.52;3.38;;;;;;;22.13;42.52;100831.44;4974579;28;20411;-73
2023/06/28 02:54:06;;;;;;;15.90;3.30;;;;;;;22.23;42.57;100844.25;4974391;28;21395;-74
2023/06/28 02:56:33;;;;;;;18.07;3.50;;;;;;;22.25;42.52;100834.03;4974587;28;20722;-73
2023/06/28 02:58:59;;;;;;;17.13;3.22;;;;;;;22.31;42.24;100846.59;4974381;28;20379;-73
2023/06/28 03:01:25;;;;;;;16.23;3.27;;;;;;;22.39;42.47;100854.28;4970014;28;20430;-74
2023/06/28 03:03:51;;;;;;;15.18;3.20;;;;;;;22.42;42.51;100856.50;4955064;28;20460;-74
2023/06/28 03:06:17;;;;;;;13.68;2.78;;;;;;;22.29;42.45;100846.84;4954330;29;20735;-74
2023/06/28 03:08:43;;;;;;;12.20;2.90;;;;;;;22.11;43.02;100849.72;4955070;28;20417;-74
2023/06/28 03:11:08;;;;;;;16.43;3.33;;;;;;;22.10;42.86;100857.00;4954731;28;20386;-74
2023/06/28 03:13:34;;;;;;;15.93;3.17;;;;;;;22.12;42.70;100843.28;4954704;28;20487;-74
2023/06/28 03:16:00;;;;;;;16.17;3.13;;;;;;;22.15;42.82;100856.28;4954941;28;20724;-74
2023/06/28 03:18:25;;;;;;;16.02;3.33;;;;;;;22.16;42.90;100855.22;4954332;28;20385;-74
2023/06/28 03:20:51;;;;;;;17.60;3.30;;;;;;;22.11;42.94;100850.56;4953623;29;20386;-74
2023/06/28 03:23:17;;;;;;;15.73;3.00;;;;;;;22.22;42.79;100856.13;4954544;28;20409;-74
2023/06/28 03:25:42;;;;;;;20.57;3.67;;;;;;;22.24;42.80;100849.44;4954363;28;20842;-74
2023/06/28 03:28:08;;;;;;;15.73;3.17;;;;;;;22.15;43.12;100859.00;4954643;28;20402;-74
2023/06/28 03:30:33;;;;;;;12.27;3.10;;;;;;;22.16;43.04;100855.22;4954911;28;20381;-74
2023/06/28 03:32:59;;;;;;;20.33;3.43;;;;;;;22.14;43.27;100851.94;4954203;28;20411;-74
2023/06/28 03:35:25;;;;;;;17.75;3.42;;;;;;;22.23;43.28;100860.47;4954646;28;20855;-74
2023/06/28 03:37:55;;;;;;;16.13;2.97;;;;;;;22.24;43.17;100848.63;4954390;28;20838;-75
2023/06/28 03:40:21;;;;;;;18.48;3.53;;;;;;;22.27;43.05;100858.94;4955938;28;20475;-75
2023/06/28 03:42:47;;;;;;;18.52;3.40;;;;;;;22.27;43.19;100850.84;4972776;28;20387;-75
2023/06/28 03:45:14;;;;;;;15.15;3.35;;;;;;;22.32;42.92;100840.13;4972795;28;20395;-74
2023/06/28 03:47:40;;;;;;;13.25;2.80;;;;;;;22.34;43.06;100851.50;4981336;28;20470;-74
2023/06/28 03:50:06;;;;;;;17.17;3.22;;;;;;;22.29;43.18;100854.09;4981310;28;20863;-75
2023/06/28 03:52:31;;;;;;;18.02;3.72;;;;;;;22.18;43.25;100844.97;4974971;28;20872;-74
2023/06/28 03:54:57;;;;;;;16.50;3.43;;;;;;;22.15;43.30;100851.69;4977005;28;20407;-74
2023/06/28 03:57:22;;;;;;;12.37;2.83;;;;;;;22.08;43.35;100851.03;4975850;28;20395;-74
2023/06/28 03:59:48;;;;;;;23.90;3.95;;;;;;;22.19;43.55;100848.53;4972941;28;20446;-76
2023/06/28 04:02:14;;;;;;;21.30;3.80;;;;;;;22.15;43.61;100849.00;4978970;28;20504;-75
2023/06/28 04:04:40;;;;;;;17.98;3.30;;;;;;;22.24;43.64;100840.50;4992120;28;20397;-75
2023/06/28 04:07:06;;;;;;;19.93;3.90;;;;;;;22.27;43.55;100846.28;4999552;28;20497;-75
2023/06/28 04:09:32;;;;;;;16.45;3.70;;;;;;;22.17;43.87;100848.75;4999959;28;20400;-76
2023/06/28 04:11:57;;;;;;;21.87;4.00;;;;;;;22.29;43.79;100846.84;4997188;28;20405;-76
2023/06/28 04:14:26;;;;;;;17.30;3.55;;;;;;;22.24;43.81;100854.00;5000868;28;20419;-74
2023/06/28 04:16:52;;;;;;;14.13;3.13;;;;;;;22.08;43.80;100847.53;4996239;28;20423;-74
2023/06/28 04:19:18;;;;;;;18.55;3.90;;;;;;;22.11;43.87;100845.16;5000402;28;20401;-74
2023/06/28 04:21:43;;;;;;;18.48;3.70;;;;;;;22.08;43.83;100842.94;4983290;28;20488;-74
2023/06/28 04:24:08;;;;;;;17.67;3.40;;;;;;;22.08;43.75;100847.53;4996586;28;20423;-74
2023/06/28 04:26:34;;;;;;;17.80;3.40;;;;;;;22.17;43.82;100848.75;4992118;28;20743;-74
2023/06/28 04:28:59;;;;;;;18.88;3.95;;;;;;;22.14;43.87;100849.25;4991313;28;20390;-74
2023/06/28 04:31:25;;;;;;;18.17;3.47;;;;;;;22.15;43.65;100846.31;4990577;28;20389;-74
2023/06/28 04:33:51;;;;;;;17.20;3.20;;;;;;;22.12;43.57;100846.78;4975507;28;20441;-74
2023/06/28 04:36:21;;;;;;;13.57;2.70;;;;;;;22.22;43.60;100842.63;4991393;28;20417;-75
2023/06/28 04:38:50;;;;;;;22.73;4.45;;;;;;;22.24;43.25;100849.44;4988251;28;20405;-75
2023/06/28 04:41:16;;;;;;;27.63;4.43;;;;;;;22.37;43.46;100855.59;4989099;28;20947;-74
2023/06/28 04:43:43;;;;;;;9.63;2.90;;;;;;;22.38;43.24;100855.34;4996621;28;21005;-74
2023/06/28 04:46:11;;;;;;;9.90;2.78;;;;;;;22.33;43.33;100856.09;4992496;28;20401;-73
2023/06/28 04:48:38;;;;;;;15.00;3.28;;;;;;;22.35;43.16;100860.44;4990225;28;20476;-74
2023/06/28 04:51:04;;;;;;;10.23;2.60;;;;;;;22.14;43.67;100860.03;4996078;28;20730;-75
2023/06/28 04:53:29;;;;;;;15.33;3.80;;;;;;;22.01;43.94;100863.06;4989006;28;20405;-75
2023/06/28 04:55:55;;;;;;;18.40;12.17;;;;;;;21.92;44.35;100871.53;4988410;28;20398;-75
2023/06/28 04:58:22;;;;;;;13.02;2.80;;;;;;;21.93;44.19;100859.69;4990477;28;20413;-74
2023/06/28 05:00:48;;;;;;;9.53;2.83;;;;;;;22.09;44.17;100868.03;4988377;28;20408;-74
2023/06/28 05:03:15;;;;;;;10.02;2.72;;;;;;;22.22;43.89;100867.75;4973033;28;20435;-75
2023/06/28 05:05:40;;;;;;;8.75;2.72;;;;;;;22.27;43.76;100880.53;4989435;28;20386;-76
2023/06/28 05:08:07;;;;;;;7.05;2.75;;;;;;;22.18;44.32;100877.38;4988842;28;20397;-75
2023/06/28 05:10:36;;;;;;;12.00;2.92;;;;;;;22.14;44.30;100877.06;4977806;28;20468;-75
2023/06/28 05:13:02;;;;;;;28.95;4.72;;;;;;;22.28;43.85;100871.38;4990203;28;20834;-74
2023/06/28 05:15:32;;;;;;;19.67;3.53;;;;;;;22.28;44.18;100883.00;4990961;28;20381;-73
2023/06/28 05:17:58;;;;;;;11.65;3.10;;;;;;;22.19;44.17;100883.63;4990699;28;20401;-75
2023/06/28 05:20:24;;;;;;;10.25;2.85;;;;;;;22.14;44.26;100887.03;5004218;28;20392;-75
2023/06/28 05:22:50;;;;;;;3.60;2.03;;;;;;;22.01;44.26;100885.47;4990890;28;20389;-74
2023/06/28 05:25:18;;;;;;;9.43;3.00;;;;;;;22.02;44.21;100889.81;4990565;28;20444;-75
2023/06/28 05:27:43;;;;;;;48.05;44.13;;;;;;;21.82;44.30;100895.63;4991732;28;20370;-74
2023/06/28 05:30:09;;;;;;;12.50;11.45;;;;;;;21.77;44.58;100909.03;4990831;28;20412;-75
2023/06/28 05:32:35;;;;;;;5.43;4.90;;;;;;;21.81;44.44;100896.69;4990722;28;20437;-76
2023/06/28 05:35:05;;;;;;;5.57;3.50;;;;;;;21.72;44.75;100903.53;4991099;28;20382;-75
2023/06/28 05:37:30;;;;;;;4.82;3.67;;;;;;;21.73;44.85;100907.84;4991317;28;20440;-74
2023/06/28 05:39:56;;;;;;;4.13;2.10;;;;;;;21.87;44.63;100895.72;4990801;28;20786;-74
2023/06/28 05:42:22;;;;;;;31.33;29.27;;;;;;;21.98;43.92;100895.94;4991217;28;20448;-76
2023/06/28 05:44:48;;;;;;;20.70;19.23;;;;;;;22.13;44.00;100918.63;4991178;28;20385;-74
2023/06/28 05:47:13;;;;;;;4.72;1.90;;;;;;;22.03;44.09;100904.13;4991175;28;20385;-74
2023/06/28 05:49:41;;;;;;;12.17;2.63;;;;;;;21.85;44.14;100922.13;4990109;28;20433;-74
2023/06/28 05:52:07;;;;;;;5.68;2.00;;;;;;;21.65;44.70;100919.84;4976709;28;20383;-74
2023/06/28 05:54:32;;;;;;;5.88;2.28;;;;;;;21.75;44.66;100916.53;4971029;28;20383;-75
2023/06/28 05:56:58;;;;;;;3.87;2.63;;;;;;;21.77;44.53;100917.94;4971633;28;20855;-75
2023/06/28 05:59:23;;;;;;;4.03;1.97;;;;;;;21.62;44.52;100922.22;4971378;28;20730;-75
2023/06/28 06:01:49;;;;;;;7.88;2.50;;;;;;;21.76;44.31;100926.28;4971189;28;20411;-74
2023/06/28 06:04:14;;;;;;;5.37;3.07;;;;;;;21.87;44.13;100920.00;4971761;28;20379;-75
2023/06/28 06:06:40;;;;;;;2.70;1.50;;;;;;;21.79;43.65;100917.72;4979172;28;20387;-75
2023/06/28 06:09:05;;;;;;;5.65;1.98;;;;;;;21.70;43.90;100925.34;4975102;28;20793;-74
2023/06/28 06:11:31;;;;;;;5.37;1.80;;;;;;;21.79;43.87;100936.59;4991623;28;20381;-75
2023/06/28 06:13:56;;;;;;;5.30;1.90;;;;;;;21.83;43.93;100943.16;4995353;28;20882;-74
2023/06/28 06:16:22;;;;;;;4.85;1.98;;;;;;;21.81;44.08;100942.56;4994589;28;20390;-75
2023/06/28 06:18:47;;;;;;;4.30;1.77;;;;;;;21.88;43.77;100934.34;4994963;28;20393;-76
2023/06/28 06:21:13;;;;;;;5.37;1.87;;;;;;;21.85;43.61;100935.63;4995130;28;20382;-75
2023/06/28 06:23:38;;;;;;;4.25;2.13;;;;;;;21.80;43.79;100934.72;4994484;28;20381;-75
2023/06/28 06:26:03;;;;;;;6.47;2.13;;;;;;;21.57;44.01;100929.16;4987404;28;20398;-76
2023/06/28 06:28:29;;;;;;;4.37;1.73;;;;;;;21.54;44.39;100943.09;4972780;28;20455;-74
2023/06/28 06:30:54;;;;;;;5.03;1.80;;;;;;;21.72;44.03;100933.22;4980020;28;20852;-74
2023/06/28 06:33:20;;;;;;;9.02;1.95;;;;;;;21.69;43.89;100941.78;4987031;28;20516;-74
2023/06/28 06:35:45;;;;;;;8.30;2.20;;;;;;;21.56;43.82;100948.25;4987666;28;20383;-75
2023/06/28 06:38:11;;;;;;;14.30;2.87;;;;;;;21.64;43.97;100945.19;4987377;28;20482;-74
2023/06/28 06:40:36;;;;;;;8.60;2.55;;;;;;;21.43;44.17;100940.38;4993470;28;20444;-74
2023/06/28 06:43:02;;;;;;;7.70;2.13;;;;;;;21.44;44.44;100948.25;4994400;28;20849;-75
2023/06/28 06:45:27;;;;;;;12.53;3.23;;;;;;;21.34;44.60;100948.84;4994101;28;20444;-75
2023/06/28 06:47:53;;;;;;;12.65;2.78;;;;;;;21.51;44.48;100951.66;4982679;28;20474;-74
2023/06/28 06:50:18;;;;;;;11.40;3.13;;;;;;;21.78;43.88;100940.34;4986158;28;20390;-75
2023/06/28 06:52:44;;;;;;;14.95;3.33;;;;;;;21.91;43.62;100944.66;4981689;28;20413;-74
2023/06/28 06:55:10;;;;;;;15.73;9.47;;;;;;;21.57;44.13;100945.34;4988193;28;20383;-74
2023/06/28 06:57:36;;;;;;;13.20;2.88;;;;;;;21.46;44.32;100958.81;4974092;28;20401;-74
2023/06/28 07:00:04;;;;;;;12.60;2.55;;;;;;;21.47;44.27;100941.59;4983088;28;20400;-75
2023/06/28 07:02:29;;;;;;;12.30;2.97;;;;;;;21.38;44.45;100936.53;4975700;28;20474;-74
2023/06/28 07:04:55;;;;;;;10.40;2.58;;;;;;;21.48;44.27;100948.63;4979753;28;20403;-75
2023/06/28 07:07:20;;;;;;;15.77;3.07;;;;;;;21.49;44.20;100945.69;4992298;28;20869;-74
2023/06/28 07:09:46;;;;;;;9.97;2.90;;;;;;;21.66;43.96;100953.03;4992906;28;20393;-76
2023/06/28 07:12:11;;;;;;;14.05;3.08;;;;;;;21.68;44.32;100953.63;4992848;28;20394;-75
2023/06/28 07:14:37;;;;;;;16.73;3.27;;;;;;;21.44;44.65;100950.13;4992306;28;20409;-75
2023/06/28 07:17:02;;;;;;;13.53;3.20;;;;;;;21.49;44.58;100952.97;4993112;28;20418;-76
2023/06/28 07:19:28;;;;;;;13.15;2.75;;;;;;;21.65;44.54;100956.81;4993335;28;20381;-75
2023/06/28 07:21:53;;;;;;;10.83;2.70;;;;;;;21.64;44.84;100964.06;4992551;28;20385;-75
2023/06/28 07:24:19;;;;;;;9.53;2.67;;;;;;;21.32;45.15;100950.97;4993007;28;20910;-74
2023/06/28 07:26:44;;;;;;;12.48;3.10;;;;;;;21.43;45.28;100952.00;4993483;28;20461;-75
2023/06/28 07:29:09;;;;;;;16.67;3.90;;;;;;;21.54;45.37;100959.28;4993109;28;20915;-75
2023/06/28 07:31:35;;;;;;;12.53;3.27;;;;;;;21.75;45.48;100959.69;4993228;28;20736;-75
2023/06/28 07:34:05;;;;;;;9.98;2.90;;;;;;;21.77;45.45;100987.28;4993020;28;20509;-75
2023/06/28 07:36:32;;;;;;;16.50;3.35;;;;;;;21.46;45.63;100962.34;4992950;28;20476;-74
2023/06/28 07:38:58;;;;;;;13.48;3.17;;;;;;;21.68;45.60;100984.13;4992863;28;20381;-74
2023/06/28 07:41:23;;;;;;;14.20;3.35;;;;;;;21.50;45.74;100982.41;4993628;28;20370;-74
2023/06/28 07:43:49;;;;;;;11.97;3.03;;;;;;;21.58;45.93;100981.22;4993070;28;20853;-74
2023/06/28 07:46:15;;;;;;;11.65;3.00;;;;;;;21.48;46.25;100978.28;4993065;28;20382;-74
2023/06/28 07:48:40;;;;;;;17.67;3.17;;;;;;;21.13;46.29;100995.25;4992849;28;20781;-75
2023/06/28 07:51:06;;;;;;;15.70;3.10;;;;;;;20.86;46.69;100984.09;4992615;28;20390;-75
2023/06/28 07:53:32;;;;;;;11.07;2.87;;;;;;;21.23;46.12;100979.34;4975139;28;20410;-74
2023/06/28 07:55:57;;;;;;;9.15;2.55;;;;;;;21.05;45.16;101009.91;4992720;28;20393;-74
2023/06/28 07:58:22;;;;;;;9.27;2.27;;;;;;;20.98;45.35;100995.72;4992498;28;20750;-76
2023/06/28 08:00:48;;;;;;;9.80;2.67;;;;;;;20.64;45.87;101000.81;4992461;28;20473;-75
2023/06/28 08:03:14;;;;;;;8.30;2.20;;;;;;;20.49;46.11;100990.44;4992465;28;20417;-75
2023/06/28 08:05:39;;;;;;;9.00;2.40;;;;;;;20.56;46.20;100990.31;4992570;28;20460;-75
2023/06/28 08:08:04;;;;;;;9.03;2.73;;;;;;;20.48;46.88;101012.19;4992268;28;20471;-75
2023/06/28 08:10:30;;;;;;;9.20;2.37;;;;;;;20.49;46.71;101009.28;4992305;28;20404;-74
2023/06/28 08:12:56;;;;;;;5.07;2.15;;;;;;;20.54;46.91;101013.97;4992365;28;20413;-74
2023/06/28 08:15:21;;;;;;;5.67;2.20;;;;;;;20.28;47.57;101010.59;4975314;28;20394;-74
2023/06/28 08:17:47;;;;;;;5.28;2.70;;;;;;;20.42;47.54;101030.09;4992334;28;20389;-74
2023/06/28 08:20:13;;;;;;;7.15;2.75;;;;;;;20.32;47.95;101029.81;4975207;28;20394;-74
2023/06/28 08:22:38;;;;;;;7.37;2.53;;;;;;;20.43;47.79;101034.41;4992354;28;20390;-74
2023/06/28 08:25:04;;;;;;;6.97;2.80;;;;;;;20.51;47.91;101042.19;4992360;28;20421;-74
2023/06/28 08:27:30;;;;;;;6.85;2.83;;;;;;;20.31;48.34;101020.91;4992306;28;20393;-74
2023/06/28 08:29:56;;;;;;;7.18;2.72;;;;;;;20.16;48.79;101044.69;4992215;28;20397;-74
2023/06/28 08:32:22;;;;;;;7.15;2.70;;;;;;;20.05;49.61;101049.78;4992036;28;20393;-75
2023/06/28 08:34:47;;;;;;;5.87;2.47;;;;;;;19.95;50.29;101048.66;4991592;28;20382;-74
2023/06/28 08:37:13;;;;;;;8.77;2.85;;;;;;;19.89;50.59;101058.44;4991750;28;20382;-75
2023/06/28 08:39:38;;;;;;;9.27;3.13;;;;;;;19.94;50.60;101061.28;4991954;28;20872;-74
2023/06/28 08:42:04;;;;;;;12.10;3.20;;;;;;;20.05;50.60;101060.53;4991784;28;20396;-74
2023/06/28 08:44:32;;;;;;;8.10;3.00;;;;;;;19.92;50.71;101051.81;4991899;28;20378;-75
2023/06/28 08:47:03;;;;;;;10.57;3.85;;;;;;;19.94;50.67;101066.69;4991658;28;20472;-74
2023/06/28 08:49:30;;;;;;;13.43;4.00;;;;;;;20.02;50.48;101066.41;4991561;28;20386;-75
2023/06/28 08:51:56;;;;;;;8.40;3.63;;;;;;;20.29;49.78;101071.44;4991236;28;20882;-74
2023/06/28 08:54:24;;;;;;;9.20;3.75;;;;;;;20.36;49.42;101074.06;4991481;28;20402;-74
2023/06/28 08:56:52;;;;;;;9.50;3.70;;;;;;;20.50;49.09;101091.69;4991796;28;20390;-74
2023/06/28 08:59:17;;;;;;;10.60;4.40;;;;;;;20.23;49.76;101088.50;4991790;28;20750;-74
2023/06/28 09:01:44;;;;;;;9.05;3.90;;;;;;;20.18;50.07;101086.47;4991404;28;20878;-74
2023/06/28 09:04:12;;;;;;;10.60;4.25;;;;;;;20.11;51.34;101096.50;4990808;28;21351;-74
2023/06/28 09:06:38;;;;;;;12.60;4.77;;;;;;;20.04;52.02;101098.44;4991287;28;20472;-75
2023/06/28 09:09:04;;;;;;;8.75;4.22;;;;;;;19.97;52.65;101092.31;4991743;28;20421;-75
2023/06/28 09:11:30;;;;;;;10.43;4.50;;;;;;;19.92;52.87;101103.75;4991516;28;20385;-74
2023/06/28 09:13:56;;;;;;;11.30;4.82;;;;;;;19.84;53.57;101096.81;4991591;28;20397;-74
2023/06/28 09:16:23;;;;;;;11.52;4.95;;;;;;;20.04;53.56;101110.03;4991297;28;20390;-74
2023/06/28 09:18:48;;;;;;;10.70;5.18;;;;;;;20.06;53.50;101115.22;4991693;28;20382;-74
2023/06/28 09:24:12;;;;;;;11.23;5.30;;;;;;;20.12;53.52;101121.56;4991295;28;20396;-77
2023/06/28 09:26:41;;;;;;;15.02;5.55;;;;;;;19.84;53.88;101115.63;4991328;28;20410;-75
2023/06/28 09:29:09;;;;;;;13.15;5.80;;;;;;;19.79;54.56;101141.53;4991125;28;20385;-74
2023/06/28 09:31:42;;;;;;;10.55;5.10;;;;;;;19.93;54.54;101134.16;4991180;28;20801;-74
2023/06/28 09:34:08;;;;;;;12.05;5.47;;;;;;;20.04;54.41;101139.66;4991179;28;20421;-73
2023/06/28 09:36:37;;;;;;;9.80;5.43;;;;;;;19.71;55.75;101142.59;4991330;28;20397;-74
2023/06/28 09:39:12;;;;;;;13.73;5.30;;;;;;;19.88;55.51;101142.91;4991297;28;20858;-74
2023/06/28 09:41:39;;;;;;;11.60;5.72;;;;;;;19.74;56.25;101157.53;4991299;28;20422;-75
2023/06/28 09:44:06;;;;;;;11.27;5.72;;;;;;;19.72;56.57;101162.28;4991068;28;20385;-75
2023/06/28 09:46:32;;;;;;;13.20;5.55;;;;;;;19.77;56.37;101170.50;4993299;28;20390;-75
2023/06/28 09:48:58;;;;;;;13.95;5.72;;;;;;;19.73;56.43;101156.69;4997084;28;20802;-81
2023/06/28 09:51:24;;;;;;;7.90;4.70;;;;;;;19.85;56.19;101170.25;4997909;28;20385;-80
2023/06/28 09:53:51;;;;;;;10.90;5.20;;;;;;;19.76;56.62;101155.44;4997621;28;20885;-79
2023/06/28 09:56:17;;;;;;;8.05;4.95;;;;;;;19.68;56.89;101175.34;4980682;28;21151;-79
2023/06/28 09:58:45;;;;;;;15.30;5.63;;;;;;;19.63;56.98;101167.91;4997185;28;20401;-81
2023/06/28 10:01:15;;;;;;;9.80;5.00;;;;;;;19.76;56.80;101174.28;4997305;28;20483;-79
2023/06/28 10:03:43;;;;;;;10.27;5.63;;;;;;;19.83;57.23;101185.78;4997276;28;20472;-81
2023/06/28 10:06:09;;;;;;;9.95;5.57;;;;;;;19.77;57.55;101187.50;4997608;28;20497;-81
2023/06/28 10:08:35;;;;;;;11.02;6.00;;;;;;;19.28;59.46;101189.88;4997214;28;20385;-82
2023/06/28 10:11:02;;;;;;;14.85;6.57;;;;;;;19.32;59.44;101187.59;4997194;28;21218;-80
2023/06/28 10:13:29;;;;;;;11.52;6.38;;;;;;;19.46;58.76;101189.16;4996936;28;20866;-80
2023/06/28 10:16:01;;;;;;;12.10;7.07;;;;;;;19.60;58.42;101206.00;4997306;28;20398;-81
2023/06/28 10:18:28;;;;;;;9.63;6.63;;;;;;;19.48;58.85;101197.81;4996945;28;20394;-79
2023/06/28 10:20:53;;;;;;;13.02;6.95;;;;;;;19.28;60.20;101195.25;4997737;28;20392;-81
2023/06/28 10:23:20;;;;;;;8.68;6.03;;;;;;;19.21;60.98;101189.09;4980195;28;20763;-79
2023/06/28 10:25:46;;;;;;;12.80;6.32;;;;;;;19.16;60.97;101191.59;4996225;28;20866;-79
2023/06/28 10:28:15;;;;;;;12.60;6.88;;;;;;;18.98;61.48;101181.56;4996516;28;20382;-80
2023/06/28 10:30:41;;;;;;;16.87;6.77;;;;;;;19.09;61.39;101191.63;4996985;28;20394;-79
2023/06/28 10:33:08;;;;;;;8.68;6.60;;;;;;;19.15;60.88;101178.38;4979457;28;20482;-80
2023/06/28 10:35:35;;;;;;;10.65;6.40;;;;;;;19.27;60.65;101184.72;4995925;28;20394;-80
2023/06/28 10:38:01;;;;;;;9.93;6.03;;;;;;;19.32;60.44;101189.44;4995683;28;20385;-79
2023/06/28 10:40:26;;;;;;;11.33;6.10;;;;;;;19.22;60.65;101179.97;4998270;28;20393;-81
2023/06/28 10:42:52;;;;;;;9.25;6.07;;;;;;;19.34;60.28;101190.03;4997652;28;20397;-81
2023/06/28 10:45:32;;;;;;;12.63;6.17;;;;;;;19.33;60.28;101173.09;4978485;28;20397;-78
2023/06/28 10:47:59;;;;;;;8.15;5.40;;;;;;;19.44;60.73;101185.00;4994678;28;20452;-76
2023/06/28 10:50:24;;;;;;;8.55;6.03;;;;;;;19.43;60.98;101189.56;4994745;28;20939;-77
2023/06/28 10:52:53;;;;;;;9.23;5.83;;;;;;;19.50;60.82;101184.16;4994216;28;20488;-77
2023/06/28 10:55:20;;;;;;;12.70;6.10;;;;;;;19.39;61.25;101174.09;4994232;28;20382;-76
2023/06/28 10:57:45;;;;;;;9.45;5.20;;;;;;;19.46;61.62;101174.84;4994289;28;20405;-75
2023/06/28 11:00:39;;;;;;;8.00;5.13;;;;;;;19.72;61.01;101167.66;4977185;28;20397;-76
2023/06/28 11:03:06;;;;;;;7.00;5.23;;;;;;;19.76;60.77;101153.56;4972681;28;20533;-75
2023/06/28 11:05:54;;;;;;;6.90;4.63;;;;;;;19.89;60.24;101157.19;4977144;28;20894;-77
2023/06/28 11:08:21;;;;;;;10.88;5.70;;;;;;;19.91;60.31;101163.16;4994170;28;20381;-78
2023/06/28 11:10:48;;;;;;;9.75;5.40;;;;;;;20.09;60.23;101170.44;4994211;28;20433;-76
2023/06/28 11:13:48;;;;;;;7.32;5.28;;;;;;;20.07;60.60;101165.28;4993921;28;20497;-75
2023/06/28 11:16:24;;;;;;;10.70;5.32;;;;;;;20.07;59.75;101159.09;4993668;28;20833;-75
2023/06/28 11:18:51;;;;;;;10.10;4.78;;;;;;;20.07;59.78;101154.50;4976342;28;20480;-76